Time;durP1;ratioP1;P1;durP2;ratioP2;P2;SDS_P1;SDS_P2;PMS_P1;PMS_P2;Temp;Humidity;BMP_temperature;BMP_pressure;BME280_temperature;BME280_humidity;BME280_pressure;Samples;Min_cycle;Max_cycle;Signal;HPM_P1;HPM_P2
2021/10/03 00:02:01;;;;;;;6.17;5.67;;;;;;;;;;5112825;28;20286;-83
2021/10/03 00:04:47;;;;;;;6.83;5.90;;;;;;;;;;5112437;28;20576;-84
2021/10/03 00:07:35;;;;;;;6.47;5.90;;;;;;;;;;5112522;28;20362;-84
2021/10/03 00:10:21;;;;;;;5.53;5.13;;;;;;;;;;5112596;28;20223;-84
2021/10/03 00:13:07;;;;;;;6.27;5.67;;;;;;;;;;5112390;28;20184;-83
2021/10/03 00:15:53;;;;;;;7.63;6.00;;;;;;;;;;5112340;28;20242;-83
2021/10/03 00:18:38;;;;;;;5.97;5.47;;;;;;;;;;5112093;28;20175;-83
2021/10/03 00:21:23;;;;;;;6.00;5.50;;;;;;;;;;5112305;28;20257;-83
2021/10/03 00:24:12;;;;;;;5.80;5.30;;;;;;;;;;5094274;28;20235;-84
2021/10/03 00:26:57;;;;;;;6.10;5.60;;;;;;;;;;5112372;28;20592;-83
2021/10/03 00:29:42;;;;;;;5.80;5.30;;;;;;;;;;5111969;28;20242;-83
2021/10/03 00:32:27;;;;;;;6.67;6.03;;;;;;;;;;5112175;28;20176;-83
2021/10/03 00:35:13;;;;;;;8.57;5.63;;;;;;;;;;5112427;28;20273;-83
2021/10/03 00:37:59;;;;;;;9.57;5.83;;;;;;;;;;5112097;28;20261;-84
2021/10/03 00:40:46;;;;;;;6.23;5.63;;;;;;;;;;5111706;28;20258;-84
2021/10/03 00:43:32;;;;;;;6.07;5.47;;;;;;;;;;5112318;28;20211;-83
2021/10/03 00:46:17;;;;;;;6.20;5.60;;;;;;;;;;5111819;28;20250;-82
2021/10/03 00:49:02;;;;;;;8.80;5.93;;;;;;;;;;5112056;28;20227;-83
2021/10/03 00:51:47;;;;;;;8.17;5.30;;;;;;;;;;5111734;28;20220;-84
2021/10/03 00:54:32;;;;;;;8.13;5.50;;;;;;;;;;5111852;28;20180;-83
2021/10/03 00:57:18;;;;;;;6.10;5.50;;;;;;;;;;5111839;28;20184;-83
2021/10/03 01:00:03;;;;;;;6.53;5.93;;;;;;;;;;5111895;28;20204;-83
2021/10/03 01:02:49;;;;;;;6.23;5.03;;;;;;;;;;5111599;28;20262;-84
2021/10/03 01:05:35;;;;;;;5.37;4.97;;;;;;;;;;5111833;28;20846;-83
2021/10/03 01:08:20;;;;;;;6.27;5.30;;;;;;;;;;5115865;28;20265;-83
2021/10/03 01:11:06;;;;;;;5.90;5.37;;;;;;;;;;5115663;28;20191;-83
2021/10/03 01:13:52;;;;;;;6.23;5.20;;;;;;;;;;5115804;28;20188;-84
2021/10/03 01:16:37;;;;;;;6.83;5.93;;;;;;;;;;5115539;28;20184;-83
2021/10/03 01:19:22;;;;;;;5.67;5.17;;;;;;;;;;5115735;28;20207;-81
2021/10/03 01:22:09;;;;;;;5.60;5.10;;;;;;;;;;5115646;27;20714;-83
2021/10/03 01:24:55;;;;;;;5.60;5.10;;;;;;;;;;5115691;28;20193;-83
2021/10/03 01:27:40;;;;;;;5.43;4.93;;;;;;;;;;5115434;28;20207;-83
2021/10/03 01:30:26;;;;;;;5.90;5.40;;;;;;;;;;5115172;28;20184;-82
2021/10/03 01:33:10;;;;;;;7.17;6.23;;;;;;;;;;5115540;28;20257;-83
2021/10/03 01:35:55;;;;;;;5.47;5.00;;;;;;;;;;5115358;28;20192;-82
2021/10/03 01:38:42;;;;;;;5.87;5.27;;;;;;;;;;5115236;28;20183;-83
2021/10/03 01:41:27;;;;;;;6.17;5.57;;;;;;;;;;5115146;28;20188;-84
2021/10/03 01:44:12;;;;;;;7.50;5.27;;;;;;;;;;5115192;28;20222;-82
2021/10/03 01:46:57;;;;;;;6.20;5.60;;;;;;;;;;5115150;28;20212;-83
2021/10/03 01:49:42;;;;;;;5.80;5.20;;;;;;;;;;5115309;28;20188;-83
2021/10/03 01:52:30;;;;;;;7.40;5.40;;;;;;;;;;5114857;28;20184;-84
2021/10/03 01:55:17;;;;;;;6.23;5.47;;;;;;;;;;5115136;28;20188;-83
2021/10/03 01:58:02;;;;;;;6.13;5.37;;;;;;;;;;5114946;28;20177;-83
2021/10/03 02:00:49;;;;;;;5.97;5.37;;;;;;;;;;5115065;28;20252;-84
2021/10/03 02:03:34;;;;;;;5.83;5.33;;;;;;;;;;5114955;28;20263;-84
2021/10/03 02:06:19;;;;;;;5.87;5.27;;;;;;;;;;5114667;28;20188;-84
2021/10/03 02:09:04;;;;;;;6.60;5.60;;;;;;;;;;5114885;28;20203;-83
2021/10/03 02:11:52;;;;;;;5.23;4.83;;;;;;;;;;5114907;28;20845;-84
2021/10/03 02:14:37;;;;;;;5.83;5.33;;;;;;;;;;5115044;28;20258;-83
2021/10/03 02:17:22;;;;;;;5.40;4.90;;;;;;;;;;5113855;28;20668;-84
2021/10/03 02:20:08;;;;;;;5.63;5.13;;;;;;;;;;5114555;28;20254;-83
2021/10/03 02:22:53;;;;;;;6.63;5.30;;;;;;;;;;5126191;27;20226;-84
2021/10/03 02:25:43;;;;;;;5.67;5.27;;;;;;;;;;5135227;27;20187;-83
2021/10/03 02:28:30;;;;;;;5.30;4.80;;;;;;;;;;5134891;27;20269;-83
2021/10/03 02:31:15;;;;;;;5.80;5.30;;;;;;;;;;5134826;27;20261;-83
2021/10/03 02:34:01;;;;;;;6.87;5.47;;;;;;;;;;5134854;27;20184;-83
2021/10/03 02:36:46;;;;;;;5.73;5.13;;;;;;;;;;5134736;27;20226;-83
2021/10/03 02:39:31;;;;;;;5.73;5.13;;;;;;;;;;5134703;27;20183;-84
2021/10/03 02:42:16;;;;;;;5.23;4.83;;;;;;;;;;5134519;27;20187;-83
2021/10/03 02:45:03;;;;;;;5.17;4.67;;;;;;;;;;5134745;27;20340;-83
2021/10/03 02:47:48;;;;;;;5.57;5.17;;;;;;;;;;5134490;27;20564;-83
2021/10/03 02:50:33;;;;;;;5.30;4.80;;;;;;;;;;5134531;27;20219;-83
2021/10/03 02:53:19;;;;;;;5.00;4.60;;;;;;;;;;5134817;27;20187;-84
2021/10/03 02:56:05;;;;;;;5.93;4.70;;;;;;;;;;5134401;27;20191;-83
2021/10/03 02:58:50;;;;;;;5.23;4.80;;;;;;;;;;5134239;27;20184;-83
2021/10/03 03:01:37;;;;;;;5.43;4.93;;;;;;;;;;5134160;27;20187;-84
2021/10/03 03:04:22;;;;;;;6.97;5.07;;;;;;;;;;5134436;27;20241;-84
2021/10/03 03:07:07;;;;;;;7.40;4.70;;;;;;;;;;5134052;27;20222;-84
2021/10/03 03:09:52;;;;;;;5.53;5.07;;;;;;;;;;5134336;27;20548;-84
2021/10/03 03:12:37;;;;;;;7.10;4.90;;;;;;;;;;5134121;27;20187;-84
2021/10/03 03:15:23;;;;;;;5.40;4.90;;;;;;;;;;5134140;27;20187;-83
2021/10/03 03:18:10;;;;;;;5.93;5.33;;;;;;;;;;5134093;27;20215;-84
2021/10/03 03:20:55;;;;;;;5.33;4.93;;;;;;;;;;5134375;27;20203;-84
2021/10/03 03:23:40;;;;;;;5.87;5.17;;;;;;;;;;5133649;27;20227;-83
2021/10/03 03:26:25;;;;;;;6.10;5.53;;;;;;;;;;5133746;27;20819;-84
2021/10/03 03:29:10;;;;;;;6.30;5.50;;;;;;;;;;5133524;27;20215;-84
2021/10/03 03:31:55;;;;;;;6.00;4.93;;;;;;;;;;5133631;27;20179;-83
2021/10/03 03:34:42;;;;;;;5.10;4.70;;;;;;;;;;5133663;27;20268;-84
2021/10/03 03:37:27;;;;;;;5.63;5.10;;;;;;;;;;5133392;27;20184;-83
2021/10/03 03:40:14;;;;;;;5.10;4.63;;;;;;;;;;5133601;27;20558;-83
2021/10/03 03:42:59;;;;;;;6.50;5.23;;;;;;;;;;5133460;27;20225;-84
2021/10/03 03:45:44;;;;;;;5.37;4.87;;;;;;;;;;5133371;27;20184;-84
2021/10/03 03:48:29;;;;;;;5.50;5.00;;;;;;;;;;5133145;27;20256;-84
2021/10/03 03:51:15;;;;;;;6.23;5.10;;;;;;;;;;5133341;27;20757;-83
2021/10/03 03:54:00;;;;;;;7.10;4.87;;;;;;;;;;5133195;27;20183;-84
2021/10/03 03:56:45;;;;;;;4.97;4.57;;;;;;;;;;5133385;27;20188;-83
2021/10/03 03:59:30;;;;;;;5.77;4.87;;;;;;;;;;5133119;27;20187;-84
2021/10/03 04:02:16;;;;;;;4.97;4.50;;;;;;;;;;5133149;27;20548;-84
2021/10/03 04:05:01;;;;;;;5.40;4.80;;;;;;;;;;5132986;27;20582;-84
2021/10/03 04:07:48;;;;;;;5.90;4.40;;;;;;;;;;5133181;27;20305;-84
2021/10/03 04:10:33;;;;;;;7.27;4.80;;;;;;;;;;5132895;27;20191;-83
2021/10/03 04:13:18;;;;;;;5.20;4.70;;;;;;;;;;5133042;27;20194;-83
2021/10/03 04:16:03;;;;;;;5.00;4.63;;;;;;;;;;5132940;27;20190;-84
2021/10/03 04:18:48;;;;;;;5.00;4.50;;;;;;;;;;5132752;27;20179;-84
2021/10/03 04:21:33;;;;;;;9.33;5.00;;;;;;;;;;5133058;27;20274;-82
2021/10/03 04:24:19;;;;;;;6.03;5.10;;;;;;;;;;5133356;27;20188;-81
2021/10/03 04:27:04;;;;;;;7.00;5.37;;;;;;;;;;5132895;27;20269;-81
2021/10/03 04:29:49;;;;;;;6.73;5.30;;;;;;;;;;5132714;27;20246;-83
2021/10/03 04:32:35;;;;;;;6.03;5.50;;;;;;;;;;5132704;27;20233;-81
2021/10/03 04:35:20;;;;;;;7.27;5.43;;;;;;;;;;5132717;27;20325;-84
2021/10/03 04:38:06;;;;;;;8.10;5.40;;;;;;;;;;5132496;27;20316;-83
2021/10/03 04:40:52;;;;;;;7.73;5.73;;;;;;;;;;5131774;27;20195;-84
2021/10/03 04:43:37;;;;;;;6.53;5.73;;;;;;;;;;5132711;27;20214;-84
2021/10/03 04:46:22;;;;;;;7.83;5.80;;;;;;;;;;5132320;27;20213;-84
2021/10/03 04:49:07;;;;;;;6.67;6.03;;;;;;;;;;5132324;28;20685;-83
2021/10/03 04:51:52;;;;;;;6.33;5.73;;;;;;;;;;5132350;28;20547;-84
2021/10/03 04:54:37;;;;;;;7.47;6.07;;;;;;;;;;5132425;28;20276;-84
2021/10/03 04:57:24;;;;;;;7.40;6.57;;;;;;;;;;5132494;28;20187;-84
2021/10/03 05:00:10;;;;;;;9.30;6.30;;;;;;;;;;5132432;28;20269;-84
2021/10/03 05:02:56;;;;;;;9.73;6.80;;;;;;;;;;5132500;28;20184;-84
2021/10/03 05:05:41;;;;;;;7.87;6.80;;;;;;;;;;5132233;28;20269;-83
2021/10/03 05:08:26;;;;;;;7.10;6.07;;;;;;;;;;5132136;28;20207;-81
2021/10/03 05:11:11;;;;;;;9.17;6.77;;;;;;;;;;5132321;28;20183;-83
2021/10/03 05:13:57;;;;;;;8.03;7.23;;;;;;;;;;5132193;28;20652;-83
2021/10/03 05:16:42;;;;;;;9.33;7.87;;;;;;;;;;5132408;28;20183;-83
2021/10/03 05:19:27;;;;;;;10.43;7.33;;;;;;;;;;5132516;28;20272;-88
2021/10/03 05:22:12;;;;;;;9.53;7.07;;;;;;;;;;5132105;28;20227;-84
2021/10/03 05:24:57;;;;;;;9.00;7.00;;;;;;;;;;5132341;28;20544;-86
2021/10/03 05:27:43;;;;;;;8.60;7.27;;;;;;;;;;5133065;28;20272;-88
2021/10/03 05:30:30;;;;;;;14.00;8.63;;;;;;;;;;5132627;28;20223;-88
2021/10/03 05:33:15;;;;;;;10.50;7.60;;;;;;;;;;5132943;28;20651;-84
2021/10/03 05:36:00;;;;;;;9.70;8.53;;;;;;;;;;5132760;28;20179;-85
2021/10/03 05:38:45;;;;;;;11.27;8.87;;;;;;;;;;5131890;28;20715;-87
2021/10/03 05:41:30;;;;;;;12.43;9.30;;;;;;;;;;5132144;28;20183;-89
2021/10/03 05:44:15;;;;;;;14.23;8.83;;;;;;;;;;5131917;28;20589;-87
2021/10/03 05:47:02;;;;;;;12.13;8.40;;;;;;;;;;5132656;28;20727;-87
2021/10/03 05:49:47;;;;;;;14.73;8.80;;;;;;;;;;5131981;28;20264;-85
2021/10/03 05:52:32;;;;;;;13.97;9.47;;;;;;;;;;5133514;27;20216;-83
2021/10/03 05:55:16;;;;;;;11.77;8.73;;;;;;;;;;5135800;27;20191;-83
2021/10/03 05:58:01;;;;;;;18.53;9.80;;;;;;;;;;5135557;27;20359;-84
2021/10/03 06:00:46;;;;;;;14.57;9.17;;;;;;;;;;5135490;27;20187;-84
2021/10/03 06:03:33;;;;;;;12.27;9.37;;;;;;;;;;5135667;27;20187;-83
2021/10/03 06:06:18;;;;;;;12.17;9.33;;;;;;;;;;5135590;27;20564;-84
2021/10/03 06:09:03;;;;;;;14.93;8.70;;;;;;;;;;5135364;27;20223;-84
2021/10/03 06:11:48;;;;;;;13.33;8.60;;;;;;;;;;5134949;27;20726;-84
2021/10/03 06:14:33;;;;;;;10.73;8.30;;;;;;;;;;5135174;27;20651;-84
2021/10/03 06:17:18;;;;;;;11.43;8.67;;;;;;;;;;5134583;27;20729;-84
2021/10/03 06:20:05;;;;;;;11.23;8.27;;;;;;;;;;5135038;27;20407;-84
2021/10/03 06:22:50;;;;;;;11.37;8.13;;;;;;;;;;5129625;27;20243;-87
2021/10/03 06:25:35;;;;;;;11.23;7.90;;;;;;;;;;5134745;27;20198;-87
2021/10/03 06:28:21;;;;;;;10.27;7.97;;;;;;;;;;5134934;27;20216;-87
2021/10/03 06:31:07;;;;;;;12.23;8.40;;;;;;;;;;5134831;27;20208;-86
2021/10/03 06:33:52;;;;;;;13.00;8.60;;;;;;;;;;5121424;27;20257;-83
2021/10/03 06:36:38;;;;;;;10.70;7.67;;;;;;;;;;5134085;27;20264;-85
2021/10/03 06:39:24;;;;;;;12.27;8.03;;;;;;;;;;5134337;27;20179;-85
2021/10/03 06:42:09;;;;;;;12.63;7.70;;;;;;;;;;5130970;27;20194;-85
2021/10/03 06:44:54;;;;;;;11.07;7.60;;;;;;;;;;5124121;27;20308;-85
2021/10/03 06:47:39;;;;;;;10.80;7.17;;;;;;;;;;5134744;27;20436;-86
2021/10/03 06:50:25;;;;;;;13.00;8.03;;;;;;;;;;5133812;27;20603;-85
2021/10/03 06:53:12;;;;;;;10.30;7.70;;;;;;;;;;5134136;27;20187;-87
2021/10/03 06:55:57;;;;;;;11.03;7.70;;;;;;;;;;5133987;27;20180;-86
2021/10/03 06:58:42;;;;;;;11.50;7.57;;;;;;;;;;5133949;27;20194;-86
2021/10/03 07:01:27;;;;;;;13.03;8.60;;;;;;;;;;5133914;27;20269;-85
2021/10/03 07:04:12;;;;;;;9.33;7.87;;;;;;;;;;5133295;27;20551;-85
2021/10/03 07:06:57;;;;;;;9.70;7.53;;;;;;;;;;5133989;27;20184;-85
2021/10/03 07:09:44;;;;;;;8.77;7.60;;;;;;;;;;5133797;27;20246;-85
2021/10/03 07:12:29;;;;;;;10.87;7.83;;;;;;;;;;5133639;27;20183;-85
2021/10/03 07:15:14;;;;;;;11.50;7.57;;;;;;;;;;5133853;27;20662;-85
2021/10/03 07:17:59;;;;;;;10.33;7.90;;;;;;;;;;5133594;27;20654;-86
2021/10/03 07:20:44;;;;;;;13.20;8.13;;;;;;;;;;5133582;27;20195;-85
2021/10/03 07:23:31;;;;;;;9.87;7.53;;;;;;;;;;5134196;27;20235;-85
2021/10/03 07:26:18;;;;;;;8.73;7.33;;;;;;;;;;5133607;27;20654;-84
2021/10/03 07:29:03;;;;;;;10.60;7.47;;;;;;;;;;5133861;27;20195;-85
2021/10/03 07:31:49;;;;;;;11.23;7.77;;;;;;;;;;5133950;27;20191;-84
2021/10/03 07:34:34;;;;;;;9.97;7.43;;;;;;;;;;5133614;27;20547;-85
2021/10/03 07:37:19;;;;;;;10.57;7.43;;;;;;;;;;5133698;27;20190;-84
2021/10/03 07:40:05;;;;;;;12.23;7.73;;;;;;;;;;5134005;27;20187;-86
2021/10/03 07:42:51;;;;;;;12.03;7.63;;;;;;;;;;5134158;27;20539;-84
2021/10/03 07:45:36;;;;;;;10.87;8.13;;;;;;;;;;5133650;27;20269;-86
2021/10/03 07:48:21;;;;;;;10.43;7.80;;;;;;;;;;5133818;27;20225;-85
2021/10/03 07:51:07;;;;;;;17.77;12.47;;;;;;;;;;5133758;27;20348;-85
2021/10/03 07:53:52;;;;;;;10.73;7.13;;;;;;;;;;5133807;27;20317;-83
2021/10/03 07:56:37;;;;;;;8.10;7.07;;;;;;;;;;5133460;27;20241;-83
2021/10/03 07:59:24;;;;;;;8.83;7.20;;;;;;;;;;5133538;27;20199;-85
2021/10/03 08:02:08;;;;;;;8.50;7.23;;;;;;;;;;5133656;27;20253;-84
2021/10/03 08:04:54;;;;;;;11.63;7.20;;;;;;;;;;5133315;27;20263;-85
2021/10/03 08:07:39;;;;;;;9.40;7.07;;;;;;;;;;5133092;27;20186;-85
2021/10/03 08:10:24;;;;;;;9.73;7.57;;;;;;;;;;5133015;27;20644;-84
2021/10/03 08:13:11;;;;;;;9.93;7.17;;;;;;;;;;5133252;27;20253;-85
2021/10/03 08:15:58;;;;;;;8.97;7.10;;;;;;;;;;5132370;27;20187;-87
2021/10/03 08:18:43;;;;;;;12.10;8.40;;;;;;;;;;5132865;27;20183;-85
2021/10/03 08:21:28;;;;;;;12.90;8.53;;;;;;;;;;5132866;27;20728;-84
2021/10/03 08:24:13;;;;;;;11.70;7.57;;;;;;;;;;5133054;27;20180;-83
2021/10/03 08:26:58;;;;;;;12.43;7.40;;;;;;;;;;5132935;27;20225;-83
2021/10/03 08:29:43;;;;;;;8.50;7.20;;;;;;;;;;5132741;27;20219;-84
2021/10/03 08:32:29;;;;;;;10.60;7.57;;;;;;;;;;5132737;27;20203;-83
2021/10/03 08:35:15;;;;;;;8.97;7.47;;;;;;;;;;5132887;27;20211;-84
2021/10/03 08:38:00;;;;;;;9.27;7.70;;;;;;;;;;5132858;27;20659;-85
2021/10/03 08:40:45;;;;;;;10.13;7.80;;;;;;;;;;5132590;27;20225;-84
2021/10/03 08:43:30;;;;;;;9.00;7.87;;;;;;;;;;5132622;27;20186;-84
2021/10/03 08:46:16;;;;;;;11.33;7.87;;;;;;;;;;5132935;27;20666;-84
2021/10/03 08:49:03;;;;;;;10.17;7.87;;;;;;;;;;5132821;27;20176;-85
2021/10/03 08:51:49;;;;;;;9.10;7.20;;;;;;;;;;5133551;27;20222;-83
2021/10/03 08:54:35;;;;;;;10.63;7.77;;;;;;;;;;5133386;28;20655;-84
2021/10/03 08:57:20;;;;;;;8.43;7.53;;;;;;;;;;5133806;28;20293;-86
2021/10/03 09:00:08;;;;;;;9.10;7.57;;;;;;;;;;5132354;28;20217;-82
2021/10/03 09:02:57;;;;;;;9.10;6.83;;;;;;;;;;5132130;28;20554;-83
2021/10/03 09:05:47;;;;;;;10.77;6.37;;;;;;;;;;5132113;28;20537;-84
2021/10/03 09:08:37;;;;;;;9.37;6.47;;;;;;;;;;5131771;28;20657;-83
2021/10/03 09:11:24;;;;;;;8.10;6.70;;;;;;;;;;5132152;28;20249;-84
2021/10/03 09:14:09;;;;;;;8.67;6.23;;;;;;;;;;5132034;28;20187;-84
2021/10/03 09:16:56;;;;;;;9.83;6.30;;;;;;;;;;5131897;28;20261;-85
2021/10/03 09:20:05;;;;;;;7.67;6.13;;;;;;;;;;5132140;28;20330;-84
2021/10/03 09:22:57;;;;;;;11.27;9.23;;;;;;;;;;5131759;27;20750;-84
2021/10/03 09:25:44;;;;;;;12.50;9.43;;;;;;;;;;5131637;28;20183;-84
2021/10/03 09:28:33;;;;;;;7.77;6.30;;;;;;;;;;5135853;27;20198;-84
2021/10/03 09:31:21;;;;;;;9.43;5.73;;;;;;;;;;5136379;27;20277;-83
2021/10/03 09:34:06;;;;;;;6.30;5.70;;;;;;;;;;5136323;27;20187;-86
2021/10/03 09:36:51;;;;;;;6.00;5.40;;;;;;;;;;5136452;27;20623;-86
2021/10/03 09:39:42;;;;;;;10.50;5.03;;;;;;;;;;5136663;27;20720;-86
2021/10/03 09:42:28;;;;;;;5.90;5.40;;;;;;;;;;5135919;27;20187;-85
2021/10/03 09:45:13;;;;;;;5.30;4.80;;;;;;;;;;5136031;27;20654;-86
2021/10/03 09:48:00;;;;;;;6.50;5.03;;;;;;;;;;5135914;27;20187;-84
2021/10/03 09:50:46;;;;;;;5.47;4.97;;;;;;;;;;5140195;27;20292;-85
2021/10/03 09:53:31;;;;;;;4.63;4.30;;;;;;;;;;5156553;27;20765;-85
2021/10/03 09:56:17;;;;;;;5.00;4.50;;;;;;;;;;5150273;27;20195;-86
2021/10/03 09:59:04;;;;;;;7.67;4.50;;;;;;;;;;5136530;27;20238;-85
2021/10/03 10:01:49;;;;;;;6.20;4.63;;;;;;;;;;5137062;27;20257;-85
2021/10/03 10:04:34;;;;;;;5.37;4.40;;;;;;;;;;5136012;27;20214;-85
2021/10/03 10:07:19;;;;;;;5.67;5.17;;;;;;;;;;5135847;27;20195;-79
2021/10/03 10:10:05;;;;;;;5.60;4.63;;;;;;;;;;5135611;27;20559;-83
2021/10/03 10:12:54;;;;;;;4.87;4.40;;;;;;;;;;5134858;27;20246;-82
2021/10/03 10:15:40;;;;;;;5.20;4.70;;;;;;;;;;5135584;27;20705;-84
2021/10/03 10:18:26;;;;;;;5.03;4.53;;;;;;;;;;5135682;27;20187;-84
2021/10/03 10:21:20;;;;;;;4.17;3.93;;;;;;;;;;5135492;27;20269;-86
2021/10/03 10:24:38;;;;;;;4.87;4.33;;;;;;;;;;5135429;27;20188;-84
2021/10/03 10:27:38;;;;;;;5.07;4.57;;;;;;;;;;5135246;27;20671;-84
2021/10/03 10:30:28;;;;;;;4.73;4.00;;;;;;;;;;5135202;27;20220;-83
2021/10/03 10:33:16;;;;;;;4.33;3.93;;;;;;;;;;5134975;27;20186;-85
2021/10/03 10:36:14;;;;;;;4.70;4.30;;;;;;;;;;5134944;27;20199;-83
2021/10/03 10:39:32;;;;;;;6.40;5.40;;;;;;;;;;5134701;27;20647;-86
2021/10/03 10:42:23;;;;;;;5.03;4.50;;;;;;;;;;5031726;28;20183;-84
2021/10/03 10:45:23;;;;;;;5.90;4.83;;;;;;;;;;5031691;28;20363;-85
2021/10/03 10:48:17;;;;;;;8.60;5.25;;;;;;;;;;5024845;28;20215;-86
2021/10/03 10:51:17;;;;;;;6.20;5.57;;;;;;;;;;5031209;28;20227;-85
2021/10/03 10:54:13;;;;;;;6.33;5.53;;;;;;;;;;5031200;28;20668;-87
2021/10/03 10:57:08;;;;;;;7.93;6.03;;;;;;;;;;5031682;28;20220;-88
2021/10/03 11:00:14;;;;;;;7.10;6.40;;;;;;;;;;5032205;28;20215;-84
2021/10/03 11:02:59;;;;;;;6.27;5.67;;;;;;;;;;5031205;28;20719;-86
2021/10/03 11:05:47;;;;;;;5.68;5.15;;;;;;;;;;5031520;28;20251;-85
2021/10/03 11:08:32;;;;;;;5.22;4.70;;;;;;;;;;5031422;28;20190;-86
2021/10/03 11:11:18;;;;;;;5.40;4.90;;;;;;;;;;5031211;28;20331;-87
2021/10/03 11:14:18;;;;;;;6.85;4.90;;;;;;;;;;5122237;27;20694;-87
2021/10/03 11:17:06;;;;;;;8.48;5.47;;;;;;;;;;5134977;27;20225;-85
2021/10/03 11:19:51;;;;;;;5.93;4.90;;;;;;;;;;5134684;27;20211;-85
2021/10/03 11:22:37;;;;;;;7.50;4.00;;;;;;;;;;5133834;27;20300;-80
2021/10/03 11:25:28;;;;;;;4.43;4.10;;;;;;;;;;5134512;27;20548;-84
2021/10/03 11:28:13;;;;;;;5.85;4.50;;;;;;;;;;5134221;27;20636;-83
2021/10/03 11:30:58;;;;;;;4.50;4.03;;;;;;;;;;5133558;27;20207;-83
2021/10/03 11:33:47;;;;;;;4.40;4.07;;;;;;;;;;5133624;27;20187;-85
2021/10/03 11:36:32;;;;;;;5.30;3.75;;;;;;;;;;5133060;27;20207;-80
2021/10/03 11:39:32;;;;;;;5.28;3.10;;;;;;;;;;5133301;27;20535;-84
2021/10/03 11:42:19;;;;;;;4.22;3.33;;;;;;;;;;5133321;27;20191;-84
2021/10/03 11:45:05;;;;;;;3.10;2.90;;;;;;;;;;5132810;27;20223;-84
2021/10/03 11:47:52;;;;;;;3.35;3.05;;;;;;;;;;5133281;27;20192;-83
2021/10/03 11:50:40;;;;;;;3.97;2.80;;;;;;;;;;5132504;27;20643;-83
2021/10/03 11:53:29;;;;;;;2.60;2.45;;;;;;;;;;5133277;27;20183;-85
2021/10/03 11:56:18;;;;;;;2.53;2.42;;;;;;;;;;5133499;27;20309;-80
2021/10/03 11:59:03;;;;;;;2.60;2.50;;;;;;;;;;5133351;27;20187;-81
2021/10/03 12:01:50;;;;;;;2.67;2.38;;;;;;;;;;5133370;27;20546;-82
2021/10/03 12:04:36;;;;;;;3.10;2.50;;;;;;;;;;5133311;27;20198;-82
2021/10/03 12:07:22;;;;;;;2.50;2.40;;;;;;;;;;5133298;27;20687;-80
2021/10/03 12:10:09;;;;;;;3.97;2.17;;;;;;;;;;5133455;27;20498;-81
2021/10/03 12:12:57;;;;;;;2.10;2.00;;;;;;;;;;5133138;27;20203;-81
2021/10/03 12:15:43;;;;;;;2.38;2.17;;;;;;;;;;5133357;27;20192;-82
2021/10/03 12:18:36;;;;;;;3.03;2.83;;;;;;;;;;5132939;27;20407;-81
2021/10/03 12:21:28;;;;;;;3.42;2.40;;;;;;;;;;5132796;27;20183;-83
2021/10/03 12:24:13;;;;;;;3.08;2.20;;;;;;;;;;5132601;27;20191;-83
2021/10/03 12:26:58;;;;;;;2.20;2.10;;;;;;;;;;5132365;27;20518;-82
2021/10/03 12:29:55;;;;;;;3.05;2.75;;;;;;;;;;5132381;27;20199;-83
2021/10/03 12:32:59;;;;;;;4.78;2.67;;;;;;;;;;5131937;27;20203;-80
2021/10/03 12:35:59;;;;;;;2.33;2.13;;;;;;;;;;5132628;27;20241;-83
2021/10/03 12:38:44;;;;;;;2.17;1.98;;;;;;;;;;5132497;27;20230;-83
2021/10/03 12:41:29;;;;;;;2.15;2.05;;;;;;;;;;5132138;27;20175;-83
2021/10/03 12:44:14;;;;;;;2.28;2.17;;;;;;;;;;5133013;27;20191;-83
2021/10/03 12:47:01;;;;;;;2.20;2.10;;;;;;;;;;5132177;27;20745;-82
2021/10/03 12:49:46;;;;;;;2.28;2.08;;;;;;;;;;5132442;27;20301;-82
2021/10/03 12:52:32;;;;;;;3.72;2.33;;;;;;;;;;5131924;27;20223;-82
2021/10/03 12:55:17;;;;;;;6.28;2.45;;;;;;;;;;5132470;27;20192;-82
2021/10/03 12:58:02;;;;;;;2.90;2.70;;;;;;;;;;5131995;28;20486;-82
2021/10/03 13:00:47;;;;;;;2.83;2.60;;;;;;;;;;5132078;28;20229;-82
2021/10/03 13:03:37;;;;;;;4.20;2.58;;;;;;;;;;5135443;27;20179;-82
2021/10/03 13:06:22;;;;;;;2.78;2.58;;;;;;;;;;5136192;27;20192;-82
2021/10/03 13:09:07;;;;;;;3.40;3.10;;;;;;;;;;5136233;27;20184;-82
2021/10/03 13:11:52;;;;;;;3.42;3.13;;;;;;;;;;5136322;27;20203;-82
2021/10/03 13:14:37;;;;;;;6.72;3.38;;;;;;;;;;5136671;27;20229;-82
2021/10/03 13:17:22;;;;;;;3.85;3.58;;;;;;;;;;5136608;27;20789;-82
2021/10/03 13:20:09;;;;;;;4.10;3.80;;;;;;;;;;5136219;27;20687;-84
2021/10/03 13:22:55;;;;;;;3.85;3.55;;;;;;;;;;5136706;27;20234;-82
2021/10/03 13:25:40;;;;;;;5.32;3.38;;;;;;;;;;5136520;27;20693;-84
2021/10/03 13:28:27;;;;;;;4.13;3.78;;;;;;;;;;5136775;27;20705;-82
2021/10/03 13:31:13;;;;;;;4.97;3.78;;;;;;;;;;5136754;27;20283;-82
2021/10/03 13:34:03;;;;;;;3.67;3.47;;;;;;;;;;5136432;27;20742;-80
2021/10/03 13:36:50;;;;;;;3.33;3.13;;;;;;;;;;5136659;27;20187;-81
2021/10/03 13:39:35;;;;;;;6.22;3.10;;;;;;;;;;5136095;27;20188;-83
2021/10/03 13:42:20;;;;;;;3.67;3.05;;;;;;;;;;5136586;27;20662;-82
2021/10/03 13:45:06;;;;;;;2.83;2.65;;;;;;;;;;5136411;27;20187;-82
2021/10/03 13:47:51;;;;;;;3.08;2.80;;;;;;;;;;5136068;27;20183;-80
2021/10/03 13:50:37;;;;;;;4.38;2.92;;;;;;;;;;5135945;27;20718;-82
2021/10/03 13:53:28;;;;;;;3.00;2.80;;;;;;;;;;5135765;27;20204;-82
2021/10/03 13:56:15;;;;;;;3.15;2.95;;;;;;;;;;5135873;27;20230;-85
2021/10/03 13:59:00;;;;;;;5.22;2.75;;;;;;;;;;5136255;27;20183;-82
2021/10/03 14:01:45;;;;;;;3.63;2.95;;;;;;;;;;5135690;27;20245;-82
2021/10/03 14:04:30;;;;;;;3.53;3.22;;;;;;;;;;5135818;27;20221;-82
2021/10/03 14:07:15;;;;;;;3.05;2.92;;;;;;;;;;5135574;27;20190;-82
2021/10/03 14:10:01;;;;;;;3.47;3.10;;;;;;;;;;5134836;27;20241;-82
2021/10/03 14:12:47;;;;;;;2.97;2.83;;;;;;;;;;5135106;27;20314;-82
2021/10/03 14:15:32;;;;;;;2.90;2.70;;;;;;;;;;5134826;27;20223;-85
2021/10/03 14:18:17;;;;;;;4.05;2.70;;;;;;;;;;5135181;27;20569;-81
2021/10/03 14:21:03;;;;;;;4.10;3.13;;;;;;;;;;5134771;27;20203;-81
2021/10/03 14:23:48;;;;;;;3.95;3.03;;;;;;;;;;5134813;27;20767;-82
2021/10/03 14:26:34;;;;;;;3.20;2.90;;;;;;;;;;5134601;27;20723;-81
2021/10/03 14:29:19;;;;;;;3.10;2.90;;;;;;;;;;5134701;27;20183;-81
2021/10/03 14:32:04;;;;;;;3.30;3.00;;;;;;;;;;5134863;27;20305;-79
2021/10/03 14:34:49;;;;;;;3.60;3.30;;;;;;;;;;5134877;27;20198;-80
2021/10/03 14:37:34;;;;;;;4.30;3.43;;;;;;;;;;5134601;27;20186;-82
2021/10/03 14:40:20;;;;;;;3.83;3.55;;;;;;;;;;5134508;27;20755;-80
2021/10/03 14:43:06;;;;;;;4.40;3.10;;;;;;;;;;5134463;27;20317;-80
2021/10/03 14:45:51;;;;;;;3.88;3.35;;;;;;;;;;5133918;27;20195;-80
2021/10/03 14:48:36;;;;;;;3.40;3.20;;;;;;;;;;5134251;27;20549;-80
2021/10/03 14:51:21;;;;;;;3.63;3.37;;;;;;;;;;5133858;27;20224;-81
2021/10/03 14:54:06;;;;;;;3.42;3.13;;;;;;;;;;5133897;27;20276;-81
2021/10/03 14:56:51;;;;;;;3.80;3.50;;;;;;;;;;5133898;27;20184;-81
2021/10/03 14:59:38;;;;;;;4.07;3.78;;;;;;;;;;5134098;27;20268;-80
2021/10/03 15:02:23;;;;;;;3.42;3.22;;;;;;;;;;5134196;27;20283;-81
2021/10/03 15:05:08;;;;;;;3.63;3.20;;;;;;;;;;5133709;27;20297;-80
2021/10/03 15:07:54;;;;;;;3.55;3.35;;;;;;;;;;5133883;27;20341;-80
2021/10/03 15:10:39;;;;;;;4.05;3.60;;;;;;;;;;5133947;27;20195;-80
2021/10/03 15:13:24;;;;;;;3.60;3.40;;;;;;;;;;5133685;27;20207;-79
2021/10/03 15:16:10;;;;;;;4.10;3.70;;;;;;;;;;5133675;27;20191;-81
2021/10/03 15:18:55;;;;;;;3.47;3.27;;;;;;;;;;5133535;27;20695;-79
2021/10/03 15:21:40;;;;;;;3.90;3.70;;;;;;;;;;5133263;27;20184;-81
2021/10/03 15:24:25;;;;;;;4.07;3.73;;;;;;;;;;5133017;27;20184;-81
2021/10/03 15:27:10;;;;;;;3.40;3.15;;;;;;;;;;5133504;27;20183;-82
2021/10/03 15:29:55;;;;;;;5.25;3.75;;;;;;;;;;5133408;27;20264;-83
2021/10/03 15:32:43;;;;;;;3.92;3.55;;;;;;;;;;5133579;27;20266;-82
2021/10/03 15:35:28;;;;;;;3.83;3.50;;;;;;;;;;5133255;27;20191;-81
2021/10/03 15:38:13;;;;;;;3.80;3.50;;;;;;;;;;5127255;27;20658;-79
2021/10/03 15:40:58;;;;;;;3.80;3.60;;;;;;;;;;5133081;27;20257;-81
2021/10/03 15:43:43;;;;;;;3.88;3.58;;;;;;;;;;5130951;27;20317;-81
2021/10/03 15:46:31;;;;;;;4.10;3.80;;;;;;;;;;5136037;27;20279;-82
2021/10/03 15:49:18;;;;;;;4.97;3.70;;;;;;;;;;5129881;27;20191;-81
2021/10/03 15:52:03;;;;;;;5.00;3.80;;;;;;;;;;5133384;27;20666;-82
2021/10/03 15:54:48;;;;;;;3.60;3.30;;;;;;;;;;5133571;27;20339;-82
2021/10/03 15:57:34;;;;;;;5.80;4.10;;;;;;;;;;5132979;27;20191;-80
2021/10/03 16:00:19;;;;;;;3.97;3.67;;;;;;;;;;5118495;27;20720;-80
2021/10/03 16:03:04;;;;;;;4.17;3.87;;;;;;;;;;5112198;28;20280;-82
2021/10/03 16:05:50;;;;;;;3.93;3.73;;;;;;;;;;5122088;27;20195;-84
2021/10/03 16:08:37;;;;;;;4.20;3.90;;;;;;;;;;5132765;27;20187;-83
2021/10/03 16:11:22;;;;;;;4.90;4.10;;;;;;;;;;5132535;27;20199;-81
2021/10/03 16:14:07;;;;;;;4.30;3.90;;;;;;;;;;5132625;27;20208;-78
2021/10/03 16:16:52;;;;;;;3.77;3.57;;;;;;;;;;5132325;27;20669;-81
2021/10/03 16:19:37;;;;;;;4.00;3.70;;;;;;;;;;5132464;27;20203;-81
2021/10/03 16:22:24;;;;;;;5.13;3.77;;;;;;;;;;5129481;27;20698;-80
2021/10/03 16:25:09;;;;;;;3.87;3.57;;;;;;;;;;5132373;27;20180;-78
2021/10/03 16:27:54;;;;;;;3.70;3.40;;;;;;;;;;5132583;27;20183;-78
2021/10/03 16:30:41;;;;;;;4.17;3.87;;;;;;;;;;5133042;27;20269;-79
2021/10/03 16:33:26;;;;;;;4.03;3.63;;;;;;;;;;5121865;27;20216;-78
2021/10/03 16:36:11;;;;;;;3.90;3.58;;;;;;;;;;5112308;28;20175;-81